Time;durP1;ratioP1;P1;durP2;ratioP2;P2;SDS_P1;SDS_P2;PMS_P1;PMS_P2;Temp;Humidity;BMP_temperature;BMP_pressure;BME280_temperature;BME280_humidity;BME280_pressure;Samples;Min_cycle;Max_cycle;Signal;HPM_P1;HPM_P2
2021/12/04 00:01:22;;;;;;;;;;;2.40;99.90;;;;;;5102193;28;19966;-70
2021/12/04 00:03:51;;;;;;;;;;;2.40;99.90;;;;;;5101824;28;19953;-70
2021/12/04 00:06:27;;;;;;;;;;;2.30;99.90;;;;;;5101809;28;19951;-70
2021/12/04 00:09:00;;;;;;;;;;;2.40;99.90;;;;;;5083184;28;19935;-70
2021/12/04 00:11:28;;;;;;;;;;;2.40;99.90;;;;;;5101796;28;19904;-70
2021/12/04 00:13:55;;;;;;;;;;;2.30;99.90;;;;;;5099390;28;19904;-70
2021/12/04 00:16:22;;;;;;;;;;;2.30;99.90;;;;;;5100987;28;19904;-70
2021/12/04 00:18:49;;;;;;;;;;;2.30;99.90;;;;;;5099310;28;20196;-70
2021/12/04 00:21:16;;;;;;;;;;;2.30;99.90;;;;;;5100725;28;20224;-70
2021/12/04 00:23:43;;;;;;;;;;;2.30;99.90;;;;;;5100746;28;19927;-70
2021/12/04 00:26:10;;;;;;;;;;;2.30;99.90;;;;;;5100727;28;19904;-70
2021/12/04 00:28:38;;;;;;;;;;;2.30;99.90;;;;;;5100359;28;20300;-70
2021/12/04 00:31:08;;;;;;;;;;;2.30;99.90;;;;;;5101440;28;19980;-70
2021/12/04 00:33:39;;;;;;;;;;;2.30;99.90;;;;;;5083155;28;19995;-70
2021/12/04 00:36:25;;;;;;;;;;;2.30;99.90;;;;;;5101878;28;19908;-70
2021/12/04 00:49:53;;;;;;;;;;;2.30;99.90;;;;;;5100260;28;19977;-70
2021/12/04 00:52:20;;;;;;;;;;;2.30;99.90;;;;;;5098826;28;19904;-70
2021/12/04 00:54:47;;;;;;;;;;;2.20;99.90;;;;;;5100235;28;19904;-70
2021/12/04 00:57:15;;;;;;;;;;;2.20;99.90;;;;;;5100374;28;19957;-70
2021/12/04 00:59:42;;;;;;;;;;;2.20;99.90;;;;;;5081884;28;19904;-70
2021/12/04 01:02:09;;;;;;;;;;;2.20;99.90;;;;;;5081694;28;20219;-70
2021/12/04 01:04:36;;;;;;;;;;;2.20;99.90;;;;;;5081862;28;20220;-70
2021/12/04 01:07:03;;;;;;;;;;;2.30;99.90;;;;;;5099776;28;19987;-70
2021/12/04 01:09:30;;;;;;;;;;;2.20;99.90;;;;;;5100009;28;19904;-70
2021/12/04 01:11:57;;;;;;;;;;;2.20;99.90;;;;;;5082626;28;20266;-70
2021/12/04 01:14:26;;;;;;;;;;;2.30;99.90;;;;;;5080869;28;19904;-70
2021/12/04 01:16:54;;;;;;;;;;;2.20;99.90;;;;;;5100310;28;19904;-70
2021/12/04 01:19:20;;;;;;;;;;;2.20;99.90;;;;;;5082483;28;19939;-70
2021/12/04 01:21:48;;;;;;;;;;;2.20;99.90;;;;;;5100905;28;19964;-70
2021/12/04 01:24:15;;;;;;;;;;;2.30;99.90;;;;;;5082372;28;19960;-70
2021/12/04 01:26:42;;;;;;;;;;;2.30;99.90;;;;;;5100786;28;19904;-70
2021/12/04 01:29:09;;;;;;;;;;;2.30;99.90;;;;;;5097960;28;19915;-70
2021/12/04 01:31:36;;;;;;;;;;;2.30;99.90;;;;;;5099235;28;19998;-70
2021/12/04 01:34:03;;;;;;;;;;;2.30;99.90;;;;;;5081250;28;19973;-70
2021/12/04 01:36:30;;;;;;;;;;;2.30;99.90;;;;;;5099481;28;19951;-70
2021/12/04 01:38:57;;;;;;;;;;;2.30;99.90;;;;;;5099061;28;19904;-70
2021/12/04 01:41:24;;;;;;;;;;;2.30;99.90;;;;;;5099122;28;20296;-70
2021/12/04 01:43:51;;;;;;;;;;;2.30;99.90;;;;;;5099309;28;20322;-70
2021/12/04 01:46:18;;;;;;;;;;;2.30;99.90;;;;;;5081060;28;19945;-70
2021/12/04 01:48:45;;;;;;;;;;;2.30;99.90;;;;;;5080984;28;20311;-70
2021/12/04 01:51:12;;;;;;;;;;;2.30;99.90;;;;;;5100236;28;19918;-70
2021/12/04 01:53:40;;;;;;;;;;;2.30;99.90;;;;;;5081761;28;19904;-70
2021/12/04 01:56:07;;;;;;;;;;;2.30;99.90;;;;;;5081790;28;19915;-70
2021/12/04 01:58:34;;;;;;;;;;;2.30;99.90;;;;;;5099942;28;19936;-70
2021/12/04 02:01:01;;;;;;;;;;;2.40;99.90;;;;;;5099753;28;19912;-70
2021/12/04 02:03:28;;;;;;;;;;;2.40;99.90;;;;;;5099855;28;19912;-70
2021/12/04 02:05:55;;;;;;;;;;;2.40;99.90;;;;;;5081556;28;20312;-70
2021/12/04 02:08:23;;;;;;;;;;;2.40;99.90;;;;;;5098990;28;20232;-70
2021/12/04 02:10:51;;;;;;;;;;;2.40;99.90;;;;;;5098945;28;19904;-70
2021/12/04 02:13:18;;;;;;;;;;;2.40;99.90;;;;;;5098985;28;19904;-70
2021/12/04 02:15:46;;;;;;;;;;;2.40;99.90;;;;;;5080397;28;20007;-70
2021/12/04 02:18:13;;;;;;;;;;;2.40;99.90;;;;;;5096474;28;20003;-70
2021/12/04 02:20:40;;;;;;;;;;;2.40;99.90;;;;;;5098401;28;19911;-70
2021/12/04 02:23:08;;;;;;;;;;;2.40;99.90;;;;;;5098292;28;20003;-70
2021/12/04 02:25:35;;;;;;;;;;;2.40;99.90;;;;;;5098211;28;19904;-70
2021/12/04 02:28:02;;;;;;;;;;;2.40;99.90;;;;;;5098262;28;19955;-70
2021/12/04 02:30:34;;;;;;;;;;;2.40;99.90;;;;;;5080687;28;20224;-70
2021/12/04 02:33:01;;;;;;;;;;;2.40;99.90;;;;;;5099453;28;19904;-70
2021/12/04 02:35:29;;;;;;;;;;;2.40;99.90;;;;;;5080908;28;19969;-70
2021/12/04 02:37:56;;;;;;;;;;;2.50;99.90;;;;;;5099116;28;20003;-70
2021/12/04 02:40:23;;;;;;;;;;;2.50;99.90;;;;;;5099110;28;20243;-70
2021/12/04 02:42:51;;;;;;;;;;;2.50;99.90;;;;;;5081064;28;19904;-70
2021/12/04 02:45:18;;;;;;;;;;;2.50;99.90;;;;;;5079855;28;19950;-70
2021/12/04 02:47:45;;;;;;;;;;;2.50;99.90;;;;;;5098829;28;19915;-70
2021/12/04 02:50:12;;;;;;;;;;;2.50;99.90;;;;;;5096494;28;19908;-70
2021/12/04 02:52:39;;;;;;;;;;;2.50;99.90;;;;;;5097798;28;19904;-70
2021/12/04 02:55:06;;;;;;;;;;;2.50;99.90;;;;;;5097665;28;19947;-70
2021/12/04 02:57:36;;;;;;;;;;;2.50;99.90;;;;;;5098076;28;19911;-70
2021/12/04 03:00:04;;;;;;;;;;;2.50;99.90;;;;;;5098159;28;20307;-70
2021/12/04 03:02:31;;;;;;;;;;;2.50;99.90;;;;;;5097349;28;20319;-70
2021/12/04 03:05:00;;;;;;;;;;;2.40;99.90;;;;;;5097748;28;19911;-70
2021/12/04 03:07:27;;;;;;;;;;;2.50;99.90;;;;;;5097452;28;19912;-70
2021/12/04 03:09:54;;;;;;;;;;;2.50;99.90;;;;;;5098760;28;19904;-70
2021/12/04 03:12:25;;;;;;;;;;;2.50;99.90;;;;;;5098622;28;19911;-70
2021/12/04 03:14:53;;;;;;;;;;;2.50;99.90;;;;;;5080310;28;19912;-70
2021/12/04 03:17:22;;;;;;;;;;;2.50;99.90;;;;;;5080700;28;19950;-70
2021/12/04 03:19:50;;;;;;;;;;;2.50;99.90;;;;;;5098187;28;20264;-70
2021/12/04 03:22:18;;;;;;;;;;;2.50;99.90;;;;;;5098143;28;20192;-70
2021/12/04 03:24:46;;;;;;;;;;;2.50;99.90;;;;;;5098170;28;19908;-70
2021/12/04 03:27:13;;;;;;;;;;;2.50;99.90;;;;;;5098529;28;19911;-70
2021/12/04 03:29:49;;;;;;;;;;;2.50;99.90;;;;;;5097445;28;19939;-70
2021/12/04 03:40:36;;;;;;;;;;;2.50;99.90;;;;;;5097721;28;19991;-70
2021/12/04 03:43:05;;;;;;;;;;;2.50;99.90;;;;;;5079099;28;19919;-70
2021/12/04 03:45:34;;;;;;;;;;;2.50;99.90;;;;;;5097280;28;19958;-70
2021/12/04 03:48:27;;;;;;;;;;;2.50;99.90;;;;;;5097295;28;19935;-70
2021/12/04 03:50:55;;;;;;;;;;;2.50;99.90;;;;;;5098180;28;20003;-70
2021/12/04 03:53:22;;;;;;;;;;;2.50;99.90;;;;;;5097969;28;20015;-70
2021/12/04 03:55:50;;;;;;;;;;;2.50;99.90;;;;;;5098267;28;19904;-70
2021/12/04 03:58:18;;;;;;;;;;;2.50;99.90;;;;;;5097824;28;19915;-70
2021/12/04 04:00:45;;;;;;;;;;;2.50;99.90;;;;;;5079713;28;20301;-70
2021/12/04 04:03:12;;;;;;;;;;;2.50;99.90;;;;;;5098046;28;19975;-70
2021/12/04 04:05:38;;;;;;;;;;;2.50;99.90;;;;;;5098009;28;19904;-70
2021/12/04 04:08:05;;;;;;;;;;;2.50;99.90;;;;;;5097240;28;19912;-70
2021/12/04 04:10:32;;;;;;;;;;;2.50;99.90;;;;;;5096753;28;20289;-70
2021/12/04 04:12:59;;;;;;;;;;;2.50;99.90;;;;;;5078861;28;20014;-70
2021/12/04 04:15:27;;;;;;;;;;;2.50;99.90;;;;;;5096714;28;19908;-70
2021/12/04 04:17:54;;;;;;;;;;;2.50;99.90;;;;;;5078837;28;20212;-70
2021/12/04 04:20:22;;;;;;;;;;;2.60;99.90;;;;;;5096944;28;19967;-70
2021/12/04 04:22:50;;;;;;;;;;;2.60;99.90;;;;;;5078803;28;19942;-70
2021/12/04 04:25:17;;;;;;;;;;;2.50;99.90;;;;;;5096608;28;19915;-70
2021/12/04 04:27:44;;;;;;;;;;;2.50;99.90;;;;;;5096841;28;19914;-71
2021/12/04 04:30:13;;;;;;;;;;;2.60;99.90;;;;;;5097705;28;19908;-70
2021/12/04 04:32:41;;;;;;;;;;;2.60;99.90;;;;;;5097594;28;19904;-70
2021/12/04 04:35:14;;;;;;;;;;;2.60;99.90;;;;;;5097678;28;19904;-70
2021/12/04 05:11:11;;;;;;;;;;;2.50;99.90;;;;;;5098381;28;20177;-70
2021/12/04 05:13:39;;;;;;;;;;;2.50;99.90;;;;;;5100904;28;19907;-70
2021/12/04 05:16:17;;;;;;;;;;;2.50;99.90;;;;;;5100780;28;19915;-70
2021/12/04 05:19:13;;;;;;;;;;;2.50;99.90;;;;;;5100971;28;19911;-70
2021/12/04 05:21:32;;;;;;;;;;;2.50;99.90;;;;;;5098814;28;19999;-70
2021/12/04 05:23:59;;;;;;;;;;;2.50;99.90;;;;;;5100583;28;20305;-70
2021/12/04 05:26:27;;;;;;;;;;;2.50;99.90;;;;;;5100350;28;19957;-69
2021/12/04 05:28:55;;;;;;;;;;;2.50;99.90;;;;;;5081706;28;19908;-70
2021/12/04 05:31:23;;;;;;;;;;;2.50;99.90;;;;;;5098067;28;19904;-70
2021/12/04 05:33:50;;;;;;;;;;;2.50;99.90;;;;;;5099484;28;19904;-70
2021/12/04 05:36:17;;;;;;;;;;;2.50;99.90;;;;;;5099449;28;19915;-70
2021/12/04 05:38:44;;;;;;;;;;;2.50;99.90;;;;;;5099111;28;19987;-70
2021/12/04 05:41:11;;;;;;;;;;;2.50;99.90;;;;;;5081490;28;20339;-70
2021/12/04 05:43:38;;;;;;;;;;;2.50;99.90;;;;;;5099273;28;19903;-70
2021/12/04 05:46:22;;;;;;;;;;;2.40;99.90;;;;;;5099530;28;19939;-70
2021/12/04 05:48:54;;;;;;;;;;;2.50;99.90;;;;;;5098763;28;19908;-70
2021/12/04 05:56:17;;;;;;;;;;;2.40;99.90;;;;;;5099678;28;19908;-70
2021/12/04 05:58:44;;;;;;;;;;;2.40;99.90;;;;;;5099862;28;19943;-69
2021/12/04 06:01:13;;;;;;;;;;;2.40;99.90;;;;;;5099801;28;19919;-70
2021/12/04 06:03:40;;;;;;;;;;;2.40;99.90;;;;;;5099806;28;19958;-69
2021/12/04 06:06:07;;;;;;;;;;;2.40;99.90;;;;;;5099770;28;20284;-70
2021/12/04 06:08:35;;;;;;;;;;;2.40;99.90;;;;;;5099095;28;19918;-70
2021/12/04 06:11:02;;;;;;;;;;;2.40;99.90;;;;;;5080553;28;20289;-70
2021/12/04 06:13:29;;;;;;;;;;;2.40;99.90;;;;;;5098663;28;20300;-70
2021/12/04 06:15:56;;;;;;;;;;;2.40;99.90;;;;;;5080356;28;19907;-70
2021/12/04 06:18:23;;;;;;;;;;;2.40;99.90;;;;;;5098280;28;19908;-70
2021/12/04 06:23:35;;;;;;;;;;;2.40;99.90;;;;;;5098142;28;19926;-70
2021/12/04 06:26:05;;;;;;;;;;;2.40;99.90;;;;;;5098409;28;19904;-70
2021/12/04 06:28:32;;;;;;;;;;;2.40;99.90;;;;;;5098948;28;19915;-70
2021/12/04 06:31:00;;;;;;;;;;;2.50;99.90;;;;;;5097622;28;19989;-70
2021/12/04 06:33:27;;;;;;;;;;;2.50;99.90;;;;;;5099176;28;20288;-70
2021/12/04 06:35:54;;;;;;;;;;;2.40;99.90;;;;;;5080885;28;19904;-70
2021/12/04 06:38:22;;;;;;;;;;;2.50;99.90;;;;;;5080710;28;20331;-70
2021/12/04 06:40:49;;;;;;;;;;;2.50;99.90;;;;;;5099171;28;19904;-70
2021/12/04 06:43:16;;;;;;;;;;;2.50;99.90;;;;;;5097806;28;19931;-70
2021/12/04 06:45:45;;;;;;;;;;;2.50;99.90;;;;;;5099476;28;20192;-70
2021/12/04 06:48:22;;;;;;;;;;;2.50;99.90;;;;;;5097984;28;19912;-70
2021/12/04 06:50:56;;;;;;;;;;;2.50;99.90;;;;;;5079631;28;20278;-70
2021/12/04 06:53:32;;;;;;;;;;;2.50;99.90;;;;;;5097785;28;19904;-70
2021/12/04 06:56:02;;;;;;;;;;;2.50;99.90;;;;;;5098157;28;19991;-70
2021/12/04 06:58:30;;;;;;;;;;;2.50;99.90;;;;;;5098038;28;19904;-70
2021/12/04 07:00:58;;;;;;;;;;;2.50;99.90;;;;;;5097468;28;19911;-69
2021/12/04 07:03:25;;;;;;;;;;;2.50;99.90;;;;;;5079351;28;19907;-70
2021/12/04 07:05:52;;;;;;;;;;;2.50;99.90;;;;;;5097734;28;19904;-70
2021/12/04 07:08:19;;;;;;;;;;;2.50;99.90;;;;;;5097567;28;20331;-70
2021/12/04 07:10:47;;;;;;;;;;;2.50;99.90;;;;;;5080495;28;20370;-70
2021/12/04 07:13:14;;;;;;;;;;;2.50;99.90;;;;;;5098558;28;19904;-70
2021/12/04 07:15:44;;;;;;;;;;;2.50;99.90;;;;;;5098582;28;19943;-70
2021/12/04 07:18:12;;;;;;;;;;;2.50;99.90;;;;;;5099016;28;19904;-71
2021/12/04 07:20:39;;;;;;;;;;;2.50;99.90;;;;;;5080412;28;20307;-69
2021/12/04 07:23:06;;;;;;;;;;;2.50;99.90;;;;;;5098057;28;19904;-69
2021/12/04 07:25:34;;;;;;;;;;;2.60;99.90;;;;;;5080115;28;19904;-69
2021/12/04 07:28:01;;;;;;;;;;;2.60;99.90;;;;;;5097300;28;20219;-73
2021/12/04 07:30:28;;;;;;;;;;;2.60;99.90;;;;;;5079339;28;20189;-73
2021/12/04 07:32:55;;;;;;;;;;;2.60;99.90;;;;;;5097358;28;19904;-73
2021/12/04 07:35:23;;;;;;;;;;;2.60;99.90;;;;;;5097339;28;20255;-73
2021/12/04 07:37:50;;;;;;;;;;;2.60;99.90;;;;;;5096886;28;19908;-73
2021/12/04 07:40:16;;;;;;;;;;;2.60;99.90;;;;;;5097256;28;19908;-73
2021/12/04 07:42:43;;;;;;;;;;;2.70;99.90;;;;;;5078132;28;19904;-73
2021/12/04 07:45:10;;;;;;;;;;;2.70;99.90;;;;;;5097180;28;20247;-73
2021/12/04 07:47:37;;;;;;;;;;;2.70;99.90;;;;;;5097873;28;19916;-73
2021/12/04 07:50:05;;;;;;;;;;;2.70;99.90;;;;;;5097818;28;19911;-77
2021/12/04 07:52:33;;;;;;;;;;;2.70;99.90;;;;;;5097883;28;19904;-73
2021/12/04 07:55:00;;;;;;;;;;;2.70;99.90;;;;;;5098078;28;19904;-72
2021/12/04 07:57:27;;;;;;;;;;;2.70;99.90;;;;;;5098414;28;19912;-71
2021/12/04 07:59:55;;;;;;;;;;;2.80;99.90;;;;;;5098261;28;19905;-72
2021/12/04 08:02:21;;;;;;;;;;;2.80;99.90;;;;;;5097602;28;19919;-71
2021/12/04 08:04:49;;;;;;;;;;;2.90;99.90;;;;;;5096713;28;20224;-71
2021/12/04 08:07:16;;;;;;;;;;;2.90;99.90;;;;;;5097008;28;20189;-71
2021/12/04 08:09:44;;;;;;;;;;;3.00;99.90;;;;;;5096681;28;20200;-72
2021/12/04 08:12:11;;;;;;;;;;;3.10;99.90;;;;;;5096700;28;19905;-72
2021/12/04 08:14:38;;;;;;;;;;;3.10;99.90;;;;;;5097206;28;19904;-72
2021/12/04 08:17:06;;;;;;;;;;;3.20;99.90;;;;;;5098444;28;19904;-72
2021/12/04 08:19:33;;;;;;;;;;;3.20;99.90;;;;;;5101188;28;19904;-70
2021/12/04 08:22:00;;;;;;;;;;;3.30;99.90;;;;;;5083078;28;19904;-70
2021/12/04 08:24:27;;;;;;;;;;;3.30;99.90;;;;;;5101053;28;19904;-70
2021/12/04 08:26:54;;;;;;;;;;;3.40;99.90;;;;;;5083104;28;20255;-71
2021/12/04 08:29:21;;;;;;;;;;;3.50;99.90;;;;;;5101586;28;19908;-71
2021/12/04 08:31:50;;;;;;;;;;;3.50;99.90;;;;;;5083291;28;20258;-70
2021/12/04 08:34:18;;;;;;;;;;;3.50;99.90;;;;;;5101243;28;20219;-71
2021/12/04 08:36:45;;;;;;;;;;;3.50;99.90;;;;;;5101346;28;19904;-71
2021/12/04 08:39:12;;;;;;;;;;;3.50;99.90;;;;;;5101485;28;19904;-71
2021/12/04 08:41:40;;;;;;;;;;;3.50;99.90;;;;;;5101401;28;19908;-71
2021/12/04 08:44:07;;;;;;;;;;;3.50;99.90;;;;;;5101356;28;19908;-73
2021/12/04 08:46:35;;;;;;;;;;;3.50;99.90;;;;;;5101477;28;20287;-75
2021/12/04 08:49:02;;;;;;;;;;;3.60;99.90;;;;;;5100289;28;19934;-71
2021/12/04 08:51:29;;;;;;;;;;;3.60;99.90;;;;;;5082020;28;19904;-72
2021/12/04 08:53:56;;;;;;;;;;;3.60;99.90;;;;;;5099949;28;19904;-72
2021/12/04 08:56:24;;;;;;;;;;;3.60;99.90;;;;;;5100152;28;19904;-72
2021/12/04 08:58:50;;;;;;;;;;;3.60;99.90;;;;;;5100402;28;19911;-72
2021/12/04 09:01:29;;;;;;;;;;;3.60;99.90;;;;;;5099751;28;19919;-72
2021/12/04 09:04:02;;;;;;;;;;;3.70;99.90;;;;;;5099821;28;19904;-72
2021/12/04 09:06:29;;;;;;;;;;;3.70;99.90;;;;;;5101006;28;19911;-72
2021/12/04 09:08:57;;;;;;;;;;;3.70;99.90;;;;;;5100436;28;19916;-72
2021/12/04 09:11:28;;;;;;;;;;;3.60;99.90;;;;;;5101024;28;19907;-71
2021/12/04 09:13:57;;;;;;;;;;;3.70;99.90;;;;;;5100602;28;20314;-72
2021/12/04 09:16:25;;;;;;;;;;;3.70;99.90;;;;;;5100875;28;19904;-72
2021/12/04 09:18:55;;;;;;;;;;;3.70;99.90;;;;;;5082404;28;19904;-71
2021/12/04 09:21:24;;;;;;;;;;;3.80;99.90;;;;;;5100404;28;19911;-71
2021/12/04 09:24:01;;;;;;;;;;;3.80;99.90;;;;;;5099387;28;19911;-71
2021/12/04 09:26:39;;;;;;;;;;;3.80;99.90;;;;;;5099451;28;20003;-71
2021/12/04 10:01:55;;;;;;;;;;;3.80;99.90;;;;;;5099151;28;19994;-71
2021/12/04 10:34:15;;;;;;;;;;;4.30;99.90;;;;;;5099556;28;19910;-70
2021/12/04 10:36:45;;;;;;;;;;;4.30;99.90;;;;;;5099547;28;19904;-71
2021/12/04 10:39:12;;;;;;;;;;;4.30;99.90;;;;;;5098113;28;20292;-72
2021/12/04 10:41:41;;;;;;;;;;;4.30;99.90;;;;;;5098429;28;19908;-71
2021/12/04 10:44:17;;;;;;;;;;;4.30;99.90;;;;;;5098435;28;19987;-71
2021/12/04 10:47:03;;;;;;;;;;;4.40;99.90;;;;;;5098264;28;19907;-71
2021/12/04 10:49:37;;;;;;;;;;;4.50;99.90;;;;;;5097944;28;19908;-71
2021/12/04 10:52:12;;;;;;;;;;;4.50;99.90;;;;;;5097926;28;19910;-71
2021/12/04 10:54:42;;;;;;;;;;;4.60;99.90;;;;;;5098259;28;19954;-71
2021/12/04 11:02:50;;;;;;;;;;;4.60;99.90;;;;;;5098337;28;19918;-70
2021/12/04 11:05:46;;;;;;;;;;;4.50;99.90;;;;;;5099147;28;19967;-70
2021/12/04 11:25:30;;;;;;;;;;;4.30;99.90;;;;;;5097202;28;19951;-72
2021/12/04 11:41:35;;;;;;;;;;;4.80;99.90;;;;;;5098109;28;20409;-71
2021/12/04 11:46:42;;;;;;;;;;;4.80;99.90;;;;;;5098226;28;19904;-70
2021/12/04 11:49:20;;;;;;;;;;;4.90;99.90;;;;;;5098074;28;19907;-71
2021/12/04 11:52:01;;;;;;;;;;;4.90;99.90;;;;;;5098854;28;19955;-70
2021/12/04 11:54:32;;;;;;;;;;;4.80;99.90;;;;;;5102898;28;20212;-71
2021/12/04 11:57:07;;;;;;;;;;;4.80;99.90;;;;;;5102380;28;19911;-71
2021/12/04 11:59:35;;;;;;;;;;;4.80;99.90;;;;;;5101026;28;19950;-71
2021/12/04 12:02:03;;;;;;;;;;;4.70;99.90;;;;;;5101094;28;20003;-71
2021/12/04 12:04:41;;;;;;;;;;;4.70;99.90;;;;;;5101466;28;19919;-71
2021/12/04 12:07:21;;;;;;;;;;;4.70;99.90;;;;;;5101122;28;19908;-73
2021/12/04 12:09:49;;;;;;;;;;;4.70;99.90;;;;;;5100773;28;19912;-72
2021/12/04 12:12:17;;;;;;;;;;;4.60;99.90;;;;;;5100873;28;19947;-72
2021/12/04 12:14:54;;;;;;;;;;;4.70;99.90;;;;;;5100966;28;19904;-72
2021/12/04 12:17:32;;;;;;;;;;;4.70;99.90;;;;;;5100760;28;19904;-72
2021/12/04 12:19:59;;;;;;;;;;;4.70;99.90;;;;;;5101777;28;19957;-72
2021/12/04 12:22:37;;;;;;;;;;;4.70;99.90;;;;;;5101926;28;20315;-72
2021/12/04 12:25:20;;;;;;;;;;;4.70;99.90;;;;;;5101750;28;19904;-72
2021/12/04 12:27:57;;;;;;;;;;;4.80;99.90;;;;;;5101641;28;20002;-72
2021/12/04 12:38:30;;;;;;;;;;;4.80;99.90;;;;;;5100598;28;20380;-73
2021/12/04 12:40:58;;;;;;;;;;;4.80;99.90;;;;;;5100860;28;19904;-73
2021/12/04 12:43:33;;;;;;;;;;;4.80;99.90;;;;;;5082197;28;19904;-73
2021/12/04 12:46:01;;;;;;;;;;;4.80;99.90;;;;;;5100382;28;20003;-73
2021/12/04 12:48:28;;;;;;;;;;;4.80;99.90;;;;;;5100359;28;19908;-73
2021/12/04 12:51:05;;;;;;;;;;;4.80;99.90;;;;;;5100178;28;19908;-73
2021/12/04 12:53:40;;;;;;;;;;;4.70;99.90;;;;;;5081993;28;20363;-73
2021/12/04 12:56:09;;;;;;;;;;;4.70;99.90;;;;;;5100460;28;20323;-73
2021/12/04 13:12:42;;;;;;;;;;;4.80;99.90;;;;;;5100649;28;20262;-73
2021/12/04 13:15:10;;;;;;;;;;;4.80;99.90;;;;;;5100980;28;19911;-72
2021/12/04 13:17:40;;;;;;;;;;;4.70;99.90;;;;;;5099781;28;19915;-73
2021/12/04 13:20:08;;;;;;;;;;;4.70;99.90;;;;;;5099667;28;19931;-73
2021/12/04 13:22:35;;;;;;;;;;;4.70;99.90;;;;;;5081370;28;19987;-73
2021/12/04 13:25:06;;;;;;;;;;;4.70;99.90;;;;;;5099907;28;19908;-73
2021/12/04 13:30:05;;;;;;;;;;;4.60;99.90;;;;;;5099401;28;20296;-73
2021/12/04 13:32:37;;;;;;;;;;;4.60;99.90;;;;;;5099572;28;19950;-73
2021/12/04 13:35:11;;;;;;;;;;;4.50;99.90;;;;;;5099363;28;19918;-73
2021/12/04 13:37:39;;;;;;;;;;;4.50;99.90;;;;;;5099629;28;19904;-73
2021/12/04 13:40:13;;;;;;;;;;;4.50;99.90;;;;;;5100447;28;19915;-73
2021/12/04 13:42:40;;;;;;;;;;;4.40;99.90;;;;;;5100034;28;19904;-73
2021/12/04 13:45:10;;;;;;;;;;;4.40;99.90;;;;;;5100285;28;19915;-72
2021/12/04 13:47:37;;;;;;;;;;;4.40;99.90;;;;;;5100182;28;20219;-72
2021/12/04 13:50:08;;;;;;;;;;;4.40;99.90;;;;;;5100171;28;19957;-73
2021/12/04 13:52:35;;;;;;;;;;;4.40;99.90;;;;;;5099811;28;19911;-73
2021/12/04 13:55:10;;;;;;;;;;;4.30;99.90;;;;;;5081683;28;19904;-73
2021/12/04 13:57:41;;;;;;;;;;;4.30;99.90;;;;;;5080980;28;20327;-72
2021/12/04 14:00:10;;;;;;;;;;;4.30;99.90;;;;;;5099178;28;20376;-72
2021/12/04 14:02:37;;;;;;;;;;;4.20;99.90;;;;;;5098514;28;19981;-73
2021/12/04 14:05:12;;;;;;;;;;;4.20;99.90;;;;;;5099001;28;19911;-79
2021/12/04 14:07:47;;;;;;;;;;;4.20;99.90;;;;;;5124490;22;19920;-73
2021/12/04 14:10:19;;;;;;;;;;;4.20;99.90;;;;;;5099814;28;19994;-73
2021/12/04 14:12:47;;;;;;;;;;;4.20;99.90;;;;;;5100130;28;19911;-73
2021/12/04 14:15:16;;;;;;;;;;;4.20;99.90;;;;;;5099197;28;20214;-73
2021/12/04 14:17:43;;;;;;;;;;;4.20;99.90;;;;;;5099754;28;19908;-73
2021/12/04 14:20:14;;;;;;;;;;;4.20;99.90;;;;;;5099670;28;19904;-73
2021/12/04 14:22:45;;;;;;;;;;;4.20;99.90;;;;;;5098060;28;19911;-73
2021/12/04 14:25:12;;;;;;;;;;;4.20;99.90;;;;;;5097306;28;19904;-73
2021/12/04 14:27:40;;;;;;;;;;;4.20;99.90;;;;;;5099142;28;20326;-73
2021/12/04 14:30:13;;;;;;;;;;;4.10;99.90;;;;;;5099074;28;19998;-73
2021/12/04 14:32:43;;;;;;;;;;;4.10;99.90;;;;;;5099536;28;20294;-73
2021/12/04 14:35:18;;;;;;;;;;;4.10;99.90;;;;;;5099893;28;19954;-73
2021/12/04 14:37:48;;;;;;;;;;;4.10;99.90;;;;;;5097073;28;19904;-73
2021/12/04 14:40:20;;;;;;;;;;;4.10;99.90;;;;;;5099269;28;19939;-73
2021/12/04 14:42:48;;;;;;;;;;;4.10;99.90;;;;;;5099226;28;19904;-73
2021/12/04 14:45:26;;;;;;;;;;;4.00;99.90;;;;;;5099180;28;20299;-73
2021/12/04 14:48:12;;;;;;;;;;;4.00;99.90;;;;;;5099296;28;20291;-73
2021/12/04 14:50:43;;;;;;;;;;;4.00;99.90;;;;;;5098998;28;19908;-73
2021/12/04 14:53:13;;;;;;;;;;;4.00;99.90;;;;;;5098950;28;20000;-72
2021/12/04 14:55:41;;;;;;;;;;;4.00;99.90;;;;;;5099172;28;19904;-71
2021/12/04 14:58:12;;;;;;;;;;;4.00;99.90;;;;;;5098567;28;19953;-73
2021/12/04 15:00:45;;;;;;;;;;;3.90;99.90;;;;;;5097317;28;20002;-73
2021/12/04 15:03:16;;;;;;;;;;;3.90;99.90;;;;;;5099099;28;20332;-73
2021/12/04 15:05:50;;;;;;;;;;;3.90;99.90;;;;;;5097128;28;19911;-74
2021/12/04 15:08:22;;;;;;;;;;;4.00;99.90;;;;;;5097745;28;19937;-73
2021/12/04 15:10:56;;;;;;;;;;;3.90;99.90;;;;;;5097870;28;19914;-73
2021/12/04 15:13:24;;;;;;;;;;;3.90;99.90;;;;;;5097306;28;19926;-73
2021/12/04 15:15:52;;;;;;;;;;;3.90;99.90;;;;;;5097246;28;19950;-73
2021/12/04 15:18:35;;;;;;;;;;;3.90;99.90;;;;;;5098836;28;19908;-73
2021/12/04 15:21:05;;;;;;;;;;;3.80;99.90;;;;;;5098063;28;19904;-73
2021/12/04 15:23:35;;;;;;;;;;;3.80;99.90;;;;;;5098412;28;20337;-73
2021/12/04 15:26:13;;;;;;;;;;;3.80;99.90;;;;;;5097719;28;19904;-73
2021/12/04 15:28:50;;;;;;;;;;;3.80;99.90;;;;;;5098087;28;20265;-73
2021/12/04 15:31:18;;;;;;;;;;;3.80;99.90;;;;;;5097305;28;20203;-75
2021/12/04 15:33:47;;;;;;;;;;;3.80;99.90;;;;;;5098108;28;19926;-74
2021/12/04 15:36:22;;;;;;;;;;;3.70;99.90;;;;;;5097949;28;20045;-75
2021/12/04 15:38:54;;;;;;;;;;;3.70;99.90;;;;;;5096879;28;19907;-75
2021/12/04 15:41:52;;;;;;;;;;;3.70;99.90;;;;;;5096913;28;20388;-75
2021/12/04 15:47:15;;;;;;;;;;;3.70;99.90;;;;;;5097891;28;20287;-74
2021/12/04 15:55:11;;;;;;;;;;;3.60;99.90;;;;;;5098150;28;19926;-75
2021/12/04 15:57:38;;;;;;;;;;;3.60;99.90;;;;;;5097029;28;20007;-75
2021/12/04 16:00:16;;;;;;;;;;;3.50;99.90;;;;;;5098096;28;19904;-76
2021/12/04 16:02:45;;;;;;;;;;;3.50;99.90;;;;;;5098065;28;19905;-72
2021/12/04 16:05:19;;;;;;;;;;;3.50;99.90;;;;;;5096667;28;19905;-73
2021/12/04 16:07:50;;;;;;;;;;;3.50;99.90;;;;;;5096230;28;19916;-73
2021/12/04 16:10:19;;;;;;;;;;;3.40;99.90;;;;;;5097695;28;19912;-73
2021/12/04 16:12:53;;;;;;;;;;;3.50;99.90;;;;;;5097797;28;19911;-73
2021/12/04 16:15:21;;;;;;;;;;;3.40;99.90;;;;;;5097783;28;20047;-73
2021/12/04 16:17:49;;;;;;;;;;;3.40;99.90;;;;;;5097603;28;19954;-74
2021/12/04 16:20:18;;;;;;;;;;;3.40;99.90;;;;;;5096756;28;19942;-73
2021/12/04 16:22:49;;;;;;;;;;;3.40;99.90;;;;;;5097721;28;19999;-73
2021/12/04 16:25:17;;;;;;;;;;;3.40;99.90;;;;;;5097617;28;19904;-73
2021/12/04 16:30:40;;;;;;;;;;;3.30;99.90;;;;;;5097511;28;20375;-75
2021/12/04 16:35:53;;;;;;;;;;;3.30;99.90;;;;;;5097733;28;19904;-75
2021/12/04 16:38:22;;;;;;;;;;;3.20;99.90;;;;;;5099361;28;19990;-75
2021/12/04 16:40:50;;;;;;;;;;;3.20;99.90;;;;;;5101577;28;19911;-73
2021/12/04 16:43:23;;;;;;;;;;;3.20;99.90;;;;;;5100071;28;19975;-74
2021/12/04 16:45:53;;;;;;;;;;;3.20;99.90;;;;;;5100933;28;19904;-74
2021/12/04 16:48:23;;;;;;;;;;;3.20;99.90;;;;;;5101101;28;19908;-74
2021/12/04 16:59:12;;;;;;;;;;;3.20;99.90;;;;;;5101308;28;19915;-74
2021/12/04 17:01:43;;;;;;;;;;;3.10;99.90;;;;;;5100966;28;19908;-74
2021/12/04 17:04:14;;;;;;;;;;;3.10;99.90;;;;;;5100140;28;19904;-74
2021/12/04 17:06:42;;;;;;;;;;;3.10;99.90;;;;;;5100495;28;20049;-74
2021/12/04 17:09:10;;;;;;;;;;;3.10;99.90;;;;;;5101025;28;19919;-73
2021/12/04 17:11:37;;;;;;;;;;;3.10;99.90;;;;;;5099530;28;19908;-73
2021/12/04 17:14:04;;;;;;;;;;;3.10;99.90;;;;;;5100854;28;19904;-73
2021/12/04 17:16:35;;;;;;;;;;;3.10;99.90;;;;;;5100819;28;19904;-73
2021/12/04 17:19:12;;;;;;;;;;;3.10;99.90;;;;;;5100669;28;19904;-73
2021/12/04 17:21:43;;;;;;;;;;;3.10;99.90;;;;;;5100821;28;20006;-74
2021/12/04 17:24:11;;;;;;;;;;;3.10;99.90;;;;;;5100440;28;19904;-74
2021/12/04 17:26:39;;;;;;;;;;;3.10;99.90;;;;;;5100936;28;19904;-74
2021/12/04 17:29:08;;;;;;;;;;;3.00;99.90;;;;;;5100592;28;19912;-73
2021/12/04 17:31:35;;;;;;;;;;;3.00;99.90;;;;;;5100681;28;19904;-74
2021/12/04 17:34:02;;;;;;;;;;;3.00;99.90;;;;;;5100607;28;19904;-74
2021/12/04 17:36:29;;;;;;;;;;;3.00;99.90;;;;;;5100520;28;19904;-74
2021/12/04 17:38:57;;;;;;;;;;;2.90;99.90;;;;;;5100497;28;20196;-74
2021/12/04 17:41:30;;;;;;;;;;;2.90;99.90;;;;;;5099378;28;19950;-74
2021/12/04 17:43:58;;;;;;;;;;;2.90;99.90;;;;;;5100322;28;19911;-74
2021/12/04 17:46:25;;;;;;;;;;;2.90;99.90;;;;;;5100013;28;19904;-74
2021/12/04 17:48:53;;;;;;;;;;;2.80;99.90;;;;;;5098740;28;20276;-74
2021/12/04 17:51:22;;;;;;;;;;;2.80;99.90;;;;;;5099051;28;20218;-74
2021/12/04 17:53:50;;;;;;;;;;;2.80;99.90;;;;;;5100364;28;20187;-74
2021/12/04 17:56:18;;;;;;;;;;;2.80;99.90;;;;;;5099807;28;19904;-74
2021/12/04 17:58:45;;;;;;;;;;;2.70;99.90;;;;;;5100083;28;19908;-74
2021/12/04 18:01:17;;;;;;;;;;;2.70;99.90;;;;;;5098647;28;19951;-74
2021/12/04 18:03:44;;;;;;;;;;;2.70;99.90;;;;;;5099859;28;19904;-74
2021/12/04 18:06:12;;;;;;;;;;;2.60;99.90;;;;;;5099845;28;19916;-74
2021/12/04 18:08:41;;;;;;;;;;;2.60;99.90;;;;;;5099721;28;19912;-74
2021/12/04 18:11:11;;;;;;;;;;;2.60;99.90;;;;;;5098394;28;19951;-74
2021/12/04 18:13:42;;;;;;;;;;;2.60;99.90;;;;;;5099911;28;20002;-74